Pagina principale
METAR-TAF:

METAR-TAF

Aeroporti :

Memmingen, Germania

latitudine: 47-59-33N, longitudine: 10-14-37E, altezza: 633 m

Osservazione

Il bollettino è stato emesso 42 minuti fa, alle 08:50 UTC
Vento 5 kt da ovest/sud-ovest, variando fra sud/sud-ovest e ovest
Temperature 25°C
Umidità 44%
Pressione 1018 hPa
Visibilità 10 km o più
nessuna nube inferiore a 1500 m e nessun cumulonembo

METAR: EDJA 290850Z 24005KT 200V280 CAVOK 25/12 Q1018

Ora: 11:32 (09:32 UTC)

Previsione

Il bollettino è stato emesso 1 ora e 32 minuti fa, alle 08:00 UTC
Previsione valida dal 29 alle 09 UTC al 29 alle 18 UTC
Vento 5 kt da sud-ovest
Visibilità 10 km o più
nessuna nube inferiore a 1500 m e nessun cumulonembo
Evoluzione graduale
dal 29 alle 11 UTC al 29 alle 13 UTC
Vento 5 kt da nord-est

TAF: EDJA 290800Z 2909/2918 22005KT CAVOK BECMG 2911/2913 04005KT

Osservazioni e previsioni meteorologiche di più di 4000 aeroporti (messaggi METAR e TAF).

Le stazioni disponibili sono rappresentate dai dischi gialli e rossi sulla carta.

Puntare il mouse per vedere il nome della stazione.

Clicca sopra per visualizzare le osservazioni e previsioni meteorologiche.

Per cambiare la mappa : fare clic sui pulsanti verdi con una croce nera per ingrandire, il pulsante verde con un trattino per diminuire, o sulla freccia verde per le mappe adiacenti.


METAR-TAF: